Terminal Aerodrome Forecast
Issued by NWS Portland, ME

Home | Current Version | Previous Version | Text Only | Print | Product List | Glossary On
Versions: 1 2 3 4 5 6 7 8 9 10 11 12 13 14 15 16 17 18 19 20
089
FTUS41 KGYX 241949 AAC
TAFCON
TAF AMD
KCON 241949Z 2420/2518 08006KT P6SM -RA BKN016 BKN028 OVC040
     FM250200 04005KT 1SM BR OVC015
     FM250300 VRB03KT 1SM BR OVC009
     FM251200 01004KT P6SM OVC007 PROB30 2512/2513 4SM -RA OVC007
     FM251500 36005KT P6SM OVC015=

USA.gov is the U.S. government's official web portal to all federal, state and local government web resources and services.